Akvile — LYJM — position and weather

sailwx.info

Track history (hours):
 
Tides and Currents Weather Stations Pressure Air Temp Water Temp Dewpoint Dewpoint Depression Visibility Wind Speed Wind Dir Waves Ship Positions

Akvile

Last reported at 2014-Aug-27 15:31 UTC. Time now 2014-Aug-28 03:25 UTC.
Position N 36°58' W 007°52'.

Length 103 m; draft 5 m.

Type: Cargo ship. MMSI: 277073000.

Date/timePositionNaut miles runAvg speedWind from/ knotsBaromVisibWave heightAir tempDewpointWater temp
2014-Aug-27 15:31N 36°58' W 007°52'3 1.4
2014-Aug-27 13:22N 37°00' W 007°55'0 0.0
2014-Aug-27 12:25N 37°00' W 007°55'0 0.0
2014-Aug-27 11:22N 37°00' W 007°55'0 0.0
2014-Aug-27 10:28N 37°00' W 007°55'0 0.0
2014-Aug-27 09:28N 37°00' W 007°55'0 0.0
2014-Aug-27 08:31N 37°00' W 007°55'0 0.0
2014-Aug-27 07:31N 37°00' W 007°55'0 0.0
2014-Aug-27 06:10N 37°00' W 007°55'0 0.0
2014-Aug-27 05:22N 37°00' W 007°55'0 0.0
2014-Aug-27 04:13N 37°00' W 007°55'0 0.0
2014-Aug-27 03:28N 37°00' W 007°55'0 0.0
2014-Aug-27 02:28N 37°00' W 007°55'0 0.0
2014-Aug-27 01:28N 37°00' W 007°55'0 0.0
2014-Aug-27 00:31N 37°00' W 007°55'0 0.0
2014-Aug-26 23:31N 37°00' W 007°55'0 0.0
2014-Aug-26 22:31N 37°00' W 007°55'0 0.0
2014-Aug-26 21:16N 37°00' W 007°55'0 0.0
2014-Aug-26 20:31N 37°00' W 007°55'0 0.0
2014-Aug-26 19:22N 37°00' W 007°55'0 0.0
2014-Aug-26 18:22N 37°00' W 007°55'0 0.0
2014-Aug-26 17:25N 37°00' W 007°55'0 0.0
2014-Aug-26 16:25N 37°00' W 007°55'0 0.0
2014-Aug-26 15:25N 37°00' W 007°55'0 0.0
2014-Aug-26 14:28N 37°00' W 007°55'0 0.0
2014-Aug-26 13:28N 37°00' W 007°55'0 0.0
2014-Aug-26 12:28N 37°00' W 007°55'0 0.0
2014-Aug-26 08:19N 37°00' W 007°55'0 0.0
2014-Aug-26 06:16N 37°00' W 007°55'0 0.0
2014-Aug-26 02:25N 37°00' W 007°55'0 0.0
2014-Aug-26 01:22N 37°00' W 007°55'0 0.0
2014-Aug-26 00:10N 37°00' W 007°55'0 0.0
2014-Aug-25 13:19N 37°00' W 007°55'0 0.0
2014-Aug-25 11:31N 37°00' W 007°55'0 0.0
2014-Aug-25 10:22N 37°00' W 007°55'0 0.0
2014-Aug-25 09:22N 37°00' W 007°55'0 0.0
2014-Aug-25 08:31N 37°00' W 007°55'5 5.0
2014-Aug-25 07:34N 36°56' W 007°51'1 1.1
2014-Aug-25 06:33N 36°55' W 007°52'0 0.2
2014-Aug-25 05:33N 36°55' W 007°52'0 0.2
2014-Aug-25 04:33N 36°56' W 007°52'2 1.5
2014-Aug-25 03:33N 36°55' W 007°50'5 4.9
2014-Aug-25 02:33N 36°53' W 007°44'130 8.5
2014-Aug-24 11:19N 35°55' W 005°20'2 2.2
2014-Aug-24 10:33N 35°54' W 005°19'0 0.0
2014-Aug-24 09:33N 35°54' W 005°19'0 0.0
2014-Aug-24 08:33N 35°54' W 005°19'0 0.0
2014-Aug-24 07:33N 35°54' W 005°19'0 0.0
2014-Aug-24 06:33N 35°54' W 005°19'0 0.0
2014-Aug-24 05:33N 35°54' W 005°19'1 1.2
2014-Aug-24 04:33N 35°55' W 005°18'1 0.7
2014-Aug-24 03:33N 35°55' W 005°18'26310.0
2014-Aug-23 01:23N 36°45' E 000°02'8 9.3
2014-Aug-23 00:33N 36°46' E 000°12'1010.0
2014-Aug-22 23:33N 36°48' E 000°24'1110.4
2014-Aug-22 22:33N 36°50' E 000°37'1010.5
2014-Aug-22 21:33N 36°51' E 000°50'1110.8
2014-Aug-22 20:33N 36°53' E 001°03'1010.4
2014-Aug-22 19:33N 36°54' E 001°16'24 7.8
2014-Aug-22 16:31N 36°58' E 001°45'1010.5
2014-Aug-22 15:33N 36°59' E 001°58'1110.3
2014-Aug-22 14:29N 37°01' E 002°11'1010.6
2014-Aug-22 13:32N 37°02' E 002°24'1111.6
2014-Aug-22 12:33N 37°04' E 002°38'1111.3
2014-Aug-22 11:33N 37°06' E 002°52'1010.4
2014-Aug-22 10:33N 37°07' E 003°05'1110.6
2014-Aug-22 09:32N 37°09' E 003°18'2110.4
2014-Aug-22 07:29N 37°11' E 003°45'1010.7
2014-Aug-22 06:33N 37°13' E 003°57'1110.7
2014-Aug-22 05:33N 37°14' E 004°11'1110.9
2014-Aug-22 04:33N 37°15' E 004°24'1110.5
2014-Aug-22 03:32N 37°16' E 004°38'21911.3
2014-Aug-21 08:15N 37°37' E 009°12'710.2
2014-Aug-21 07:33N 37°38' E 009°21'1310.1
2014-Aug-21 06:15N 37°39' E 009°38'910.0
2014-Aug-21 05:22N 37°38' E 009°49'1110.0
2014-Aug-21 04:16N 37°38' E 010°03'7 9.8
2014-Aug-21 03:32N 37°38' E 010°12'1010.2
2014-Aug-21 02:31N 37°36' E 010°25'2110.8
2014-Aug-21 00:33N 37°31' E 010°51'1411.3
2014-Aug-20 23:16N 37°28' E 011°08'810.2
2014-Aug-20 22:31N 37°21' E 011°14'1010.7
2014-Aug-20 21:33N 37°11' E 011°15'1310.7
2014-Aug-20 20:18N 36°58' E 011°14'4311.0
2014-Aug-20 16:24N 36°16' E 011°01'1011.3
2014-Aug-20 15:33N 36°08' E 010°55'1111.3
2014-Aug-20 14:33N 35°59' E 010°47'1110.7
2014-Aug-20 13:34N 35°50' E 010°40'1 1.3
2014-Aug-20 12:31N 35°50' E 010°39'0 0.0
2014-Aug-20 11:07N 35°50' E 010°39'0 0.0
2014-Aug-20 02:28N 35°50' E 010°39'0 0.0
2014-Aug-20 01:31N 35°50' E 010°39'0 0.0
2014-Aug-19 21:13N 35°50' E 010°39'0 0.0
2014-Aug-19 20:31N 35°50' E 010°39'0 0.0
2014-Aug-19 18:31N 35°50' E 010°39'0 0.0
2014-Aug-19 17:25N 35°50' E 010°39'0 0.0
2014-Aug-19 16:31N 35°50' E 010°39'0 0.0
2014-Aug-19 15:31N 35°50' E 010°39'0 0.0
2014-Aug-19 13:28N 35°50' E 010°39'0 0.0
2014-Aug-19 12:28N 35°50' E 010°39'0 0.0
2014-Aug-19 10:28N 35°50' E 010°39'0 0.0
2014-Aug-18 15:31N 35°50' E 010°39'0 0.0
2014-Aug-18 14:28N 35°50' E 010°39'0 0.0
2014-Aug-18 13:19N 35°50' E 010°39'0 0.2
2014-Aug-18 12:33N 35°50' E 010°39'5 4.7
2014-Aug-18 11:31N 35°50' E 010°45'1111.1
2014-Aug-18 10:33N 35°51' E 010°58'1110.6
2014-Aug-18 09:32N 35°48' E 011°11'3310.9
2014-Aug-18 06:31N 35°19' E 011°31'1210.5
2014-Aug-18 05:24N 35°09' E 011°38'910.5
2014-Aug-18 04:33N 35°01' E 011°44'1010.2
2014-Aug-18 03:33N 34°53' E 011°50'9 9.4
2014-Aug-18 02:33N 34°45' E 011°43'1210.0
2014-Aug-18 01:23N 34°39' E 011°31'810.2
2014-Aug-18 00:33N 34°35' E 011°22'  
Track history (hours):
 
Tides and Currents Weather Stations Pressure Air Temp Water Temp Dewpoint Dewpoint Depression Visibility Wind Speed Wind Dir Waves Ship Positions

Akvile

Last reported at 2014-Aug-27 15:31 UTC. Time now 2014-Aug-28 03:25 UTC.
Position N 36°58' W 007°52'.

Length 103 m; draft 5 m.

Type: Cargo ship. MMSI: 277073000.

Date/timePositionNaut miles runAvg speedWind from/ knotsBaromVisibWave heightAir tempDewpointWater temp
2014-Aug-27 15:31N 36°58' W 007°52'3 1.4
2014-Aug-27 13:22N 37°00' W 007°55'0 0.0
2014-Aug-27 12:25N 37°00' W 007°55'0 0.0
2014-Aug-27 11:22N 37°00' W 007°55'0 0.0
2014-Aug-27 10:28N 37°00' W 007°55'0 0.0
2014-Aug-27 09:28N 37°00' W 007°55'0 0.0
2014-Aug-27 08:31N 37°00' W 007°55'0 0.0
2014-Aug-27 07:31N 37°00' W 007°55'0 0.0
2014-Aug-27 06:10N 37°00' W 007°55'0 0.0
2014-Aug-27 05:22N 37°00' W 007°55'0 0.0
2014-Aug-27 04:13N 37°00' W 007°55'0 0.0
2014-Aug-27 03:28N 37°00' W 007°55'0 0.0
2014-Aug-27 02:28N 37°00' W 007°55'0 0.0
2014-Aug-27 01:28N 37°00' W 007°55'0 0.0
2014-Aug-27 00:31N 37°00' W 007°55'0 0.0
2014-Aug-26 23:31N 37°00' W 007°55'0 0.0
2014-Aug-26 22:31N 37°00' W 007°55'0 0.0
2014-Aug-26 21:16N 37°00' W 007°55'0 0.0
2014-Aug-26 20:31N 37°00' W 007°55'0 0.0
2014-Aug-26 19:22N 37°00' W 007°55'0 0.0
2014-Aug-26 18:22N 37°00' W 007°55'0 0.0
2014-Aug-26 17:25N 37°00' W 007°55'0 0.0
2014-Aug-26 16:25N 37°00' W 007°55'0 0.0
2014-Aug-26 15:25N 37°00' W 007°55'0 0.0
2014-Aug-26 14:28N 37°00' W 007°55'0 0.0
2014-Aug-26 13:28N 37°00' W 007°55'0 0.0
2014-Aug-26 12:28N 37°00' W 007°55'0 0.0
2014-Aug-26 08:19N 37°00' W 007°55'0 0.0
2014-Aug-26 06:16N 37°00' W 007°55'0 0.0
2014-Aug-26 02:25N 37°00' W 007°55'0 0.0
2014-Aug-26 01:22N 37°00' W 007°55'0 0.0
2014-Aug-26 00:10N 37°00' W 007°55'0 0.0
2014-Aug-25 13:19N 37°00' W 007°55'0 0.0
2014-Aug-25 11:31N 37°00' W 007°55'0 0.0
2014-Aug-25 10:22N 37°00' W 007°55'0 0.0
2014-Aug-25 09:22N 37°00' W 007°55'0 0.0
2014-Aug-25 08:31N 37°00' W 007°55'5 5.0
2014-Aug-25 07:34N 36°56' W 007°51'1 1.1
2014-Aug-25 06:33N 36°55' W 007°52'0 0.2
2014-Aug-25 05:33N 36°55' W 007°52'0 0.2
2014-Aug-25 04:33N 36°56' W 007°52'2 1.5
2014-Aug-25 03:33N 36°55' W 007°50'5 4.9
2014-Aug-25 02:33N 36°53' W 007°44'130 8.5
2014-Aug-24 11:19N 35°55' W 005°20'2 2.2
2014-Aug-24 10:33N 35°54' W 005°19'0 0.0
2014-Aug-24 09:33N 35°54' W 005°19'0 0.0
2014-Aug-24 08:33N 35°54' W 005°19'0 0.0
2014-Aug-24 07:33N 35°54' W 005°19'0 0.0
2014-Aug-24 06:33N 35°54' W 005°19'0 0.0
2014-Aug-24 05:33N 35°54' W 005°19'1 1.2
2014-Aug-24 04:33N 35°55' W 005°18'1 0.7
2014-Aug-24 03:33N 35°55' W 005°18'26310.0
2014-Aug-23 01:23N 36°45' E 000°02'8 9.3
2014-Aug-23 00:33N 36°46' E 000°12'1010.0
2014-Aug-22 23:33N 36°48' E 000°24'1110.4
2014-Aug-22 22:33N 36°50' E 000°37'1010.5
2014-Aug-22 21:33N 36°51' E 000°50'1110.8
2014-Aug-22 20:33N 36°53' E 001°03'1010.4
2014-Aug-22 19:33N 36°54' E 001°16'24 7.8
2014-Aug-22 16:31N 36°58' E 001°45'1010.5
2014-Aug-22 15:33N 36°59' E 001°58'1110.3
2014-Aug-22 14:29N 37°01' E 002°11'1010.6
2014-Aug-22 13:32N 37°02' E 002°24'1111.6
2014-Aug-22 12:33N 37°04' E 002°38'1111.3
2014-Aug-22 11:33N 37°06' E 002°52'1010.4
2014-Aug-22 10:33N 37°07' E 003°05'1110.6
2014-Aug-22 09:32N 37°09' E 003°18'2110.4
2014-Aug-22 07:29N 37°11' E 003°45'1010.7
2014-Aug-22 06:33N 37°13' E 003°57'1110.7
2014-Aug-22 05:33N 37°14' E 004°11'1110.9
2014-Aug-22 04:33N 37°15' E 004°24'1110.5
2014-Aug-22 03:32N 37°16' E 004°38'21911.3
2014-Aug-21 08:15N 37°37' E 009°12'710.2
2014-Aug-21 07:33N 37°38' E 009°21'1310.1
2014-Aug-21 06:15N 37°39' E 009°38'910.0
2014-Aug-21 05:22N 37°38' E 009°49'1110.0
2014-Aug-21 04:16N 37°38' E 010°03'7 9.8
2014-Aug-21 03:32N 37°38' E 010°12'1010.2
2014-Aug-21 02:31N 37°36' E 010°25'2110.8
2014-Aug-21 00:33N 37°31' E 010°51'1411.3
2014-Aug-20 23:16N 37°28' E 011°08'810.2
2014-Aug-20 22:31N 37°21' E 011°14'1010.7
2014-Aug-20 21:33N 37°11' E 011°15'1310.7
2014-Aug-20 20:18N 36°58' E 011°14'4311.0
2014-Aug-20 16:24N 36°16' E 011°01'1011.3
2014-Aug-20 15:33N 36°08' E 010°55'1111.3
2014-Aug-20 14:33N 35°59' E 010°47'1110.7
2014-Aug-20 13:34N 35°50' E 010°40'1 1.3
2014-Aug-20 12:31N 35°50' E 010°39'0 0.0
2014-Aug-20 11:07N 35°50' E 010°39'0 0.0
2014-Aug-20 02:28N 35°50' E 010°39'0 0.0
2014-Aug-20 01:31N 35°50' E 010°39'0 0.0
2014-Aug-19 21:13N 35°50' E 010°39'0 0.0
2014-Aug-19 20:31N 35°50' E 010°39'0 0.0
2014-Aug-19 18:31N 35°50' E 010°39'0 0.0
2014-Aug-19 17:25N 35°50' E 010°39'0 0.0
2014-Aug-19 16:31N 35°50' E 010°39'0 0.0
2014-Aug-19 15:31N 35°50' E 010°39'0 0.0
2014-Aug-19 13:28N 35°50' E 010°39'0 0.0
2014-Aug-19 12:28N 35°50' E 010°39'0 0.0
2014-Aug-19 10:28N 35°50' E 010°39'0 0.0
2014-Aug-18 15:31N 35°50' E 010°39'0 0.0
2014-Aug-18 14:28N 35°50' E 010°39'0 0.0
2014-Aug-18 13:19N 35°50' E 010°39'0 0.2
2014-Aug-18 12:33N 35°50' E 010°39'5 4.7
2014-Aug-18 11:31N 35°50' E 010°45'1111.1
2014-Aug-18 10:33N 35°51' E 010°58'1110.6
2014-Aug-18 09:32N 35°48' E 011°11'3310.9
2014-Aug-18 06:31N 35°19' E 011°31'1210.5
2014-Aug-18 05:24N 35°09' E 011°38'910.5
2014-Aug-18 04:33N 35°01' E 011°44'1010.2
2014-Aug-18 03:33N 34°53' E 011°50'9 9.4
2014-Aug-18 02:33N 34°45' E 011°43'1210.0
2014-Aug-18 01:23N 34°39' E 011°31'810.2
2014-Aug-18 00:33N 34°35' E 011°22'  

Dump ship's entire track history